createdAt,value
2018-03-22T00:01:59.180Z,35.00
2018-03-22T00:04:26.637Z,37.17
2018-03-22T00:06:54.090Z,36.37
2018-03-22T00:09:21.565Z,35.90
2018-03-22T00:11:49.104Z,37.97
2018-03-22T00:14:16.556Z,38.70
2018-03-22T00:16:44.011Z,38.03
2018-03-22T00:19:11.446Z,44.40
2018-03-22T00:21:38.921Z,40.60
2018-03-22T00:24:06.404Z,40.83
2018-03-22T00:26:33.889Z,43.27
2018-03-22T00:29:01.331Z,37.83
2018-03-22T00:31:28.787Z,45.03
2018-03-22T00:33:56.261Z,38.33
2018-03-22T00:36:23.710Z,37.80
2018-03-22T00:38:51.177Z,38.23
2018-03-22T00:41:18.616Z,39.07
2018-03-22T00:43:46.074Z,40.67
2018-03-22T00:46:13.527Z,33.50
2018-03-22T00:48:40.980Z,33.03
2018-03-22T00:51:08.457Z,35.83
2018-03-22T00:53:35.933Z,38.30
2018-03-22T00:56:03.401Z,32.87
2018-03-22T00:58:30.845Z,36.13
2018-03-22T01:00:59.089Z,38.43
2018-03-22T01:03:26.565Z,43.23
2018-03-22T01:05:54.030Z,42.07
2018-03-22T01:08:22.262Z,38.30
2018-03-22T01:10:49.738Z,39.27
2018-03-22T01:13:17.192Z,37.43
2018-03-22T01:15:44.634Z,38.63
2018-03-22T01:18:12.115Z,41.03
2018-03-22T01:20:39.590Z,35.77
2018-03-22T01:23:07.814Z,36.37
2018-03-22T01:25:35.296Z,37.03
2018-03-22T01:28:02.765Z,37.87
2018-03-22T01:30:37.217Z,35.60
2018-03-22T01:33:04.668Z,34.17
2018-03-22T01:35:32.142Z,32.03
2018-03-22T01:37:59.580Z,38.80
2018-03-22T01:40:27.161Z,35.33
2018-03-22T01:42:54.627Z,30.70
2018-03-22T01:45:22.088Z,33.83
2018-03-22T01:47:49.572Z,36.03
2018-03-22T01:50:17.010Z,38.07
2018-03-22T01:52:56.149Z,38.33
2018-03-22T01:55:23.589Z,36.87
2018-03-22T01:57:51.059Z,35.67
2018-03-22T02:00:18.520Z,38.30
2018-03-22T02:02:46.002Z,34.73
2018-03-22T02:05:13.449Z,35.87
2018-03-22T02:07:40.895Z,37.53
2018-03-22T02:10:08.399Z,32.07
2018-03-22T02:12:36.599Z,31.70
2018-03-22T02:15:04.070Z,41.90
2018-03-22T02:17:31.521Z,36.20
2018-03-22T02:19:59.009Z,38.93
2018-03-22T02:22:26.453Z,36.87
2018-03-22T02:24:53.905Z,38.90
2018-03-22T02:27:21.460Z,37.40
2018-03-22T02:29:48.927Z,38.40
2018-03-22T02:32:16.410Z,36.53
2018-03-22T02:34:44.648Z,35.47
2018-03-22T02:37:15.081Z,35.57
2018-03-22T02:39:42.534Z,35.77
2018-03-22T02:42:09.986Z,33.27
2018-03-22T02:44:37.462Z,32.97
2018-03-22T02:47:04.934Z,34.13
2018-03-22T02:49:33.179Z,37.93
2018-03-22T02:52:00.625Z,33.87
2018-03-22T02:54:28.158Z,37.10
2018-03-22T02:56:55.623Z,36.90
2018-03-22T02:59:23.094Z,33.10
2018-03-22T03:01:50.553Z,33.00
2018-03-22T03:04:19.003Z,32.53
2018-03-22T03:06:46.445Z,34.50
2018-03-22T03:09:13.902Z,35.70
2018-03-22T03:11:41.370Z,35.03
2018-03-22T03:14:08.852Z,31.83
2018-03-22T03:16:36.322Z,28.80
2018-03-22T03:19:03.838Z,33.43
2018-03-22T03:21:31.326Z,28.93
2018-03-22T03:23:58.805Z,32.70
2018-03-22T03:26:26.314Z,30.83
2018-03-22T03:28:53.829Z,30.50
2018-03-22T03:31:22.167Z,30.30
2018-03-22T03:33:49.677Z,32.77
2018-03-22T03:36:17.169Z,30.30
2018-03-22T03:38:44.687Z,29.03
2018-03-22T03:41:12.961Z,28.63
2018-03-22T03:43:40.481Z,31.47
2018-03-22T03:46:07.966Z,31.30
2018-03-22T03:48:35.446Z,26.27
2018-03-22T03:51:02.913Z,25.73
2018-03-22T03:53:31.158Z,29.27
2018-03-22T03:55:58.615Z,29.60
2018-03-22T03:58:26.088Z,31.67
2018-03-22T04:00:54.318Z,29.70
2018-03-22T04:03:21.786Z,30.87
2018-03-22T04:05:49.237Z,29.33
2018-03-22T04:08:17.054Z,29.97
2018-03-22T04:10:45.308Z,32.10
2018-03-22T04:13:12.807Z,27.07
2018-03-22T04:15:40.268Z,29.33
2018-03-22T04:18:07.751Z,29.97
2018-03-22T04:20:35.201Z,26.27
2018-03-22T04:23:02.651Z,37.00
2018-03-22T04:25:30.193Z,27.20
2018-03-22T04:27:57.633Z,28.70
2018-03-22T04:30:25.092Z,33.90
2018-03-22T04:32:52.556Z,35.47
2018-03-22T04:35:20.036Z,35.20
2018-03-22T04:37:47.497Z,28.00
2018-03-22T04:40:14.968Z,33.10
2018-03-22T04:42:42.947Z,32.10
2018-03-22T04:45:10.422Z,29.90
2018-03-22T04:47:38.648Z,31.50
2018-03-22T04:50:06.096Z,32.63
2018-03-22T04:52:33.542Z,31.10
2018-03-22T04:55:01.000Z,28.30
2018-03-22T04:57:28.466Z,29.60
2018-03-22T04:59:55.935Z,34.83
2018-03-22T05:02:23.382Z,36.23
2018-03-22T05:04:50.830Z,34.73
2018-03-22T05:07:18.309Z,30.47
2018-03-22T05:09:45.750Z,29.23
2018-03-22T05:12:13.222Z,27.33
2018-03-22T05:14:40.677Z,29.80
2018-03-22T05:17:08.130Z,30.77
2018-03-22T05:19:35.603Z,28.60
2018-03-22T05:22:03.053Z,26.07
2018-03-22T05:24:30.544Z,31.30
2018-03-22T05:26:58.777Z,29.07
2018-03-22T05:29:26.253Z,29.47
2018-03-22T05:31:53.721Z,28.97
2018-03-22T05:34:21.186Z,29.00
2018-03-22T05:36:48.646Z,29.80
2018-03-22T05:39:16.859Z,22.77
2018-03-22T05:41:44.313Z,27.80
2018-03-22T05:44:11.874Z,27.73
2018-03-22T05:46:39.341Z,24.43
2018-03-22T05:49:06.804Z,26.57
2018-03-22T05:51:34.285Z,24.20
2018-03-22T05:54:03.356Z,27.03
2018-03-22T05:56:30.826Z,21.47
2018-03-22T05:58:58.293Z,25.50
2018-03-22T06:01:25.771Z,23.60
2018-03-22T06:03:54.085Z,22.70
2018-03-22T06:06:21.545Z,30.20
2018-03-22T06:08:50.118Z,27.50
2018-03-22T06:11:18.345Z,26.37
2018-03-22T06:13:45.792Z,35.20
2018-03-22T06:16:13.314Z,29.67
2018-03-22T06:18:40.750Z,26.60
2018-03-22T06:21:08.237Z,29.60
2018-03-22T06:23:35.785Z,30.07
2018-03-22T06:26:03.225Z,25.23
2018-03-22T06:28:30.736Z,25.53
2018-03-22T06:30:58.208Z,35.17
2018-03-22T06:33:25.662Z,27.07
2018-03-22T06:35:53.137Z,30.47
2018-03-22T06:38:21.350Z,33.80
2018-03-22T06:40:48.821Z,27.77
2018-03-22T06:43:16.274Z,29.80
2018-03-22T06:45:43.741Z,31.27
2018-03-22T06:48:11.273Z,38.10
2018-03-22T06:50:38.707Z,32.13
2018-03-22T06:53:06.951Z,41.23
2018-03-22T06:55:34.422Z,34.23
2018-03-22T06:58:01.863Z,39.37
2018-03-22T07:00:29.365Z,39.33
2018-03-22T07:02:56.917Z,41.33
2018-03-22T07:05:24.434Z,37.67
2018-03-22T07:07:51.959Z,35.43
2018-03-22T07:10:19.450Z,34.07
2018-03-22T07:12:46.950Z,42.13
2018-03-22T07:15:14.430Z,41.47
2018-03-22T07:17:41.946Z,36.00
2018-03-22T07:20:10.194Z,39.17
2018-03-22T07:22:37.718Z,37.47
2018-03-22T07:25:05.221Z,37.43
2018-03-22T07:27:32.735Z,36.87
2018-03-22T07:30:00.200Z,38.17
2018-03-22T07:32:27.719Z,41.87
2018-03-22T07:34:55.948Z,40.47
2018-03-22T07:37:23.503Z,38.43
2018-03-22T07:39:51.023Z,42.30
2018-03-22T07:42:18.506Z,46.73
2018-03-22T07:44:48.937Z,41.37
2018-03-22T07:47:16.395Z,42.83
2018-03-22T07:49:43.863Z,46.90
2018-03-22T07:52:11.316Z,41.60
2018-03-22T07:54:38.783Z,37.10
2018-03-22T07:57:06.255Z,44.40
2018-03-22T07:59:33.689Z,40.10
2018-03-22T08:02:01.139Z,39.87
2018-03-22T08:04:28.615Z,40.17
2018-03-22T08:06:56.092Z,41.83
2018-03-22T08:09:24.305Z,41.70
2018-03-22T08:11:51.806Z,47.27
2018-03-22T08:14:19.261Z,46.67
2018-03-22T08:16:46.701Z,44.20
2018-03-22T08:19:14.194Z,45.67
2018-03-22T08:21:42.405Z,45.97
2018-03-22T08:24:09.877Z,45.53
2018-03-22T08:26:37.319Z,49.47
2018-03-22T08:29:04.842Z,39.80
2018-03-22T08:31:32.270Z,53.17
2018-03-22T08:33:59.710Z,51.97
2018-03-22T08:36:27.147Z,43.97
2018-03-22T08:38:54.629Z,51.20
2018-03-22T08:41:22.166Z,41.97
2018-03-22T08:43:50.331Z,45.63
2018-03-22T08:46:17.783Z,43.77
2018-03-22T08:48:45.241Z,42.80
2018-03-22T08:51:12.716Z,39.07
2018-03-22T08:53:40.170Z,42.13
2018-03-22T08:56:07.620Z,46.63
2018-03-22T08:58:35.104Z,42.20
2018-03-22T09:01:02.552Z,41.70
2018-03-22T09:06:20.769Z,44.57
2018-03-22T09:08:48.224Z,40.83
2018-03-22T09:11:15.706Z,43.00
2018-03-22T09:13:43.147Z,45.07
2018-03-22T09:16:10.599Z,42.10
2018-03-22T09:18:38.044Z,43.63
2018-03-22T09:21:06.290Z,38.33
2018-03-22T09:23:33.738Z,40.03
2018-03-22T09:26:01.217Z,39.20
2018-03-22T09:28:29.453Z,35.33
2018-03-22T09:30:56.900Z,36.33
2018-03-22T09:33:24.365Z,36.23
2018-03-22T09:35:51.815Z,32.80
2018-03-22T09:38:19.310Z,33.50
2018-03-22T09:40:46.775Z,32.57
2018-03-22T09:43:14.242Z,36.03
2018-03-22T09:45:42.458Z,34.53
2018-03-22T09:48:09.907Z,34.03
2018-03-22T09:50:37.361Z,36.57
2018-03-22T09:53:04.815Z,28.90
2018-03-22T09:55:32.301Z,33.10
2018-03-22T09:57:59.765Z,32.20
2018-03-22T10:00:27.221Z,32.20
2018-03-22T10:02:54.721Z,28.40
2018-03-22T10:05:22.176Z,26.33
2018-03-22T10:07:50.423Z,29.83
2018-03-22T10:10:17.867Z,28.70
2018-03-22T10:12:45.361Z,31.87
2018-03-22T10:15:13.595Z,29.10
2018-03-22T10:17:41.044Z,22.33
2018-03-22T10:20:08.569Z,25.10
2018-03-22T10:22:36.526Z,30.50
2018-03-22T10:25:03.978Z,26.20
2018-03-22T10:27:31.451Z,33.87
2018-03-22T10:29:58.904Z,27.30
2018-03-22T10:32:26.376Z,19.03
2018-03-22T10:34:53.894Z,15.17
2018-03-22T10:37:22.120Z,15.07
2018-03-22T10:39:49.560Z,19.17
2018-03-22T10:42:17.028Z,10.90
2018-03-22T10:44:44.509Z,12.17
2018-03-22T10:47:11.970Z,14.33
2018-03-22T10:49:39.420Z,15.03
2018-03-22T10:52:06.891Z,16.90
2018-03-22T10:54:34.326Z,16.13
2018-03-22T10:57:01.806Z,16.07
2018-03-22T10:59:29.272Z,15.37
2018-03-22T11:02:00.732Z,16.20
2018-03-22T11:04:28.965Z,14.83
2018-03-22T11:06:56.418Z,16.20
2018-03-22T11:09:23.908Z,17.00
2018-03-22T11:11:51.363Z,15.97
2018-03-22T11:14:18.826Z,15.93
2018-03-22T11:16:47.039Z,15.20
2018-03-22T11:19:14.511Z,15.03
2018-03-22T11:21:41.993Z,14.93
2018-03-22T11:24:09.449Z,19.07
2018-03-22T11:26:36.900Z,16.63
2018-03-22T11:29:04.367Z,14.03
2018-03-22T11:31:32.071Z,15.93
2018-03-22T11:33:59.620Z,15.80
2018-03-22T11:36:27.129Z,21.50
2018-03-22T11:38:54.684Z,17.97
2018-03-22T11:41:22.281Z,14.30
2018-03-22T11:43:50.587Z,14.87
2018-03-22T11:46:18.125Z,16.67
2018-03-22T11:48:45.663Z,18.33
2018-03-22T11:51:13.976Z,17.07
2018-03-22T11:53:41.536Z,15.73
2018-03-22T11:56:09.060Z,15.97
2018-03-22T11:58:36.579Z,17.13
2018-03-22T12:01:04.099Z,16.40
2018-03-22T12:03:31.666Z,17.23
2018-03-22T12:05:59.226Z,16.07
2018-03-22T12:08:26.762Z,18.83
2018-03-22T12:10:54.338Z,15.93
2018-03-22T12:13:21.895Z,15.33
2018-03-22T12:15:49.443Z,14.40
2018-03-22T12:18:16.949Z,15.20
2018-03-22T12:20:44.477Z,15.70
2018-03-22T12:23:12.017Z,15.53
2018-03-22T12:25:39.598Z,15.10
2018-03-22T12:28:07.124Z,17.37
2018-03-22T12:30:35.451Z,16.50
2018-03-22T12:33:03.026Z,15.87
2018-03-22T12:35:30.560Z,19.90
2018-03-22T12:37:58.115Z,16.57
2018-03-22T12:40:25.649Z,18.60
2018-03-22T12:42:53.190Z,17.50
2018-03-22T12:45:20.721Z,16.57
2018-03-22T12:47:48.277Z,15.30
2018-03-22T12:50:15.842Z,16.77
2018-03-22T12:52:43.322Z,15.80
2018-03-22T12:55:10.774Z,35.00
2018-03-22T12:57:38.251Z,19.20
2018-03-22T13:00:06.482Z,18.27
2018-03-22T13:02:33.917Z,21.70
2018-03-22T13:05:01.405Z,24.73
2018-03-22T13:07:28.872Z,24.70
2018-03-22T13:09:56.336Z,23.73
2018-03-22T13:12:23.821Z,29.67
2018-03-22T13:14:52.038Z,29.60
2018-03-22T13:17:20.020Z,29.30
2018-03-22T13:19:47.493Z,28.83
2018-03-22T13:22:14.965Z,27.40
2018-03-22T13:24:43.226Z,31.07
2018-03-22T13:27:10.696Z,29.37
2018-03-22T13:29:38.962Z,35.97
2018-03-22T13:32:06.439Z,35.10
2018-03-22T13:34:34.687Z,31.97
2018-03-22T13:37:02.149Z,32.47
2018-03-22T13:39:29.641Z,29.77
2018-03-22T13:41:57.105Z,33.80
2018-03-22T13:44:24.667Z,29.27
2018-03-22T13:46:52.135Z,28.87
2018-03-22T13:49:19.625Z,32.73
2018-03-22T13:51:47.873Z,31.53
2018-03-22T13:54:15.348Z,26.73
2018-03-22T13:56:42.815Z,26.90
2018-03-22T13:59:10.296Z,25.47
2018-03-22T14:01:38.510Z,27.93
2018-03-22T14:04:05.996Z,29.97
2018-03-22T14:06:33.479Z,31.07
2018-03-22T14:09:00.969Z,34.03
2018-03-22T14:11:28.414Z,29.60
2018-03-22T14:13:55.895Z,29.83
2018-03-22T14:16:23.365Z,26.00
2018-03-22T14:18:50.828Z,26.47
2018-03-22T14:21:18.322Z,27.67
2018-03-22T14:23:46.564Z,29.30
2018-03-22T14:26:14.006Z,25.53
2018-03-22T14:28:41.468Z,26.50
2018-03-22T14:31:08.944Z,24.03
2018-03-22T14:33:36.384Z,25.40
2018-03-22T14:36:03.871Z,26.37
2018-03-22T14:38:31.346Z,24.10
2018-03-22T14:40:59.570Z,28.20
2018-03-22T14:43:27.023Z,23.70
2018-03-22T14:45:54.493Z,28.70
2018-03-22T14:48:21.956Z,26.87
2018-03-22T14:50:49.448Z,21.73
2018-03-22T14:53:17.703Z,29.53
2018-03-22T14:55:45.161Z,27.83
2018-03-22T14:58:12.645Z,25.20
2018-03-22T15:00:40.137Z,25.93
2018-03-22T15:03:07.584Z,24.43
2018-03-22T15:05:35.050Z,23.53
2018-03-22T15:08:02.534Z,34.27
2018-03-22T15:10:30.083Z,29.43
2018-03-22T15:12:57.468Z,23.23
2018-03-22T15:15:25.696Z,24.10
2018-03-22T15:17:53.190Z,25.93
2018-03-22T15:20:20.644Z,28.87
2018-03-22T15:22:48.102Z,26.97
2018-03-22T15:25:15.581Z,27.53
2018-03-22T15:27:44.701Z,24.27
2018-03-22T15:30:12.210Z,28.13
2018-03-22T15:32:39.718Z,29.10
2018-03-22T15:35:07.213Z,26.17
2018-03-22T15:37:34.691Z,25.57
2018-03-22T15:40:02.951Z,25.50
2018-03-22T15:42:30.415Z,23.83
2018-03-22T15:44:57.961Z,28.63
2018-03-22T15:47:25.451Z,28.77
2018-03-22T15:49:53.736Z,25.43
2018-03-22T15:52:21.229Z,27.73
2018-03-22T15:54:48.755Z,29.20
2018-03-22T15:57:17.194Z,27.67
2018-03-22T15:59:44.699Z,30.80
2018-03-22T16:02:12.267Z,30.20
2018-03-22T16:04:39.746Z,39.87
2018-03-22T16:07:07.242Z,28.23
2018-03-22T16:09:34.916Z,26.60
2018-03-22T16:12:02.529Z,24.10
2018-03-22T16:14:30.057Z,30.90
2018-03-22T16:16:57.643Z,27.83
2018-03-22T16:19:25.225Z,31.73
2018-03-22T16:21:53.785Z,28.43
2018-03-22T16:24:21.362Z,37.57
2018-03-22T16:26:48.868Z,31.43
2018-03-22T16:29:18.692Z,40.97
2018-03-22T16:31:46.176Z,34.27
2018-03-22T16:34:13.690Z,28.77
2018-03-22T16:36:41.962Z,33.40
2018-03-22T16:39:09.454Z,27.10
2018-03-22T16:41:36.987Z,32.97
2018-03-22T16:44:04.504Z,39.13
2018-03-22T16:46:32.005Z,35.33
2018-03-22T16:48:59.666Z,36.47
2018-03-22T16:51:27.785Z,35.97
2018-03-22T16:53:56.246Z,37.47
2018-03-22T16:56:23.765Z,35.83
2018-03-22T16:58:52.034Z,37.13
2018-03-22T17:01:20.163Z,43.37
2018-03-22T17:03:48.822Z,44.83
2018-03-22T17:06:16.323Z,40.70
2018-03-22T17:08:43.823Z,41.00
2018-03-22T17:11:11.723Z,45.03
2018-03-22T17:13:39.247Z,44.80
2018-03-22T17:16:07.546Z,43.67
2018-03-22T17:18:35.068Z,37.53
2018-03-22T17:21:03.345Z,35.87
2018-03-22T17:23:31.617Z,38.90
2018-03-22T17:25:59.371Z,43.17
2018-03-22T17:28:28.430Z,42.80
2018-03-22T17:30:55.941Z,38.97
2018-03-22T17:33:23.490Z,40.90
2018-03-22T17:35:51.740Z,40.63
2018-03-22T17:38:20.641Z,41.80
2018-03-22T17:40:48.245Z,41.53
2018-03-22T17:43:16.020Z,48.13
2018-03-22T17:45:43.875Z,45.57
2018-03-22T17:48:11.354Z,40.73
2018-03-22T17:50:38.871Z,43.97
2018-03-22T17:53:06.950Z,48.53
2018-03-22T17:55:35.092Z,40.00
2018-03-22T17:58:06.064Z,48.70
2018-03-22T18:00:33.563Z,53.27
2018-03-22T18:03:01.073Z,43.13
2018-03-22T18:05:28.583Z,43.23
2018-03-22T18:07:56.109Z,37.60
2018-03-22T18:10:23.638Z,45.90
2018-03-22T18:12:51.918Z,38.67
2018-03-22T18:15:19.496Z,44.43
2018-03-22T18:17:47.039Z,49.67
2018-03-22T18:20:14.547Z,46.00
2018-03-22T18:22:42.178Z,47.87
2018-03-22T18:25:09.705Z,50.97
2018-03-22T18:27:38.920Z,56.43
2018-03-22T18:30:07.091Z,51.27
2018-03-22T18:32:34.624Z,49.63
2018-03-22T18:35:05.653Z,46.70
2018-03-22T18:37:33.706Z,50.00
2018-03-22T18:40:02.065Z,48.70
2018-03-22T18:42:29.626Z,51.80
2018-03-22T18:44:58.095Z,50.17
2018-03-22T18:47:26.935Z,47.30
2018-03-22T18:49:56.090Z,53.77
2018-03-22T18:52:24.773Z,53.57
2018-03-22T18:54:52.283Z,50.07
2018-03-22T18:57:22.241Z,55.97
2018-03-22T18:59:51.154Z,53.03
2018-03-22T19:02:18.715Z,55.67
2018-03-22T19:04:46.655Z,56.70
2018-03-22T19:07:14.273Z,54.83
2018-03-22T19:09:42.558Z,51.60
2018-03-22T19:12:10.865Z,60.57
2018-03-22T19:14:38.372Z,60.33
2018-03-22T19:17:05.884Z,58.53
2018-03-22T19:19:35.015Z,62.67
2018-03-22T19:22:06.346Z,66.60
2018-03-22T19:24:34.753Z,55.13
2018-03-22T19:27:03.011Z,63.10
2018-03-22T19:29:30.551Z,64.70
2018-03-22T19:32:00.152Z,54.30
2018-03-22T19:34:28.579Z,57.40
2018-03-22T19:36:56.864Z,60.97
2018-03-22T19:39:25.967Z,67.27
2018-03-22T19:41:54.594Z,66.13
2018-03-22T19:44:23.829Z,68.17
2018-03-22T19:46:52.164Z,65.30
2018-03-22T19:49:21.052Z,63.23
2018-03-22T19:51:49.002Z,74.40
2018-03-22T19:54:16.519Z,68.23
2018-03-22T19:56:46.815Z,60.87
2018-03-22T19:59:16.076Z,65.00
2018-03-22T20:01:44.577Z,69.73
2018-03-22T20:04:12.142Z,61.90
2018-03-22T20:06:40.553Z,58.73
2018-03-22T20:09:09.874Z,58.80
2018-03-22T20:11:39.247Z,67.33
2018-03-22T20:14:06.789Z,62.00
2018-03-22T20:16:35.240Z,58.10
2018-03-22T20:19:04.918Z,68.80
2018-03-22T20:21:34.233Z,61.83
2018-03-22T20:24:03.808Z,64.23
2018-03-22T20:26:32.312Z,65.23
2018-03-22T20:29:01.545Z,61.77
2018-03-22T20:31:31.158Z,62.17
2018-03-22T20:33:59.609Z,74.30
2018-03-22T20:36:28.320Z,57.50
2018-03-22T20:38:56.786Z,62.37
2018-03-22T20:41:24.408Z,57.87
2018-03-22T20:43:52.899Z,65.67
2018-03-22T20:46:21.392Z,59.27
2018-03-22T20:48:52.166Z,58.27
2018-03-22T20:51:21.219Z,52.67
2018-03-22T20:53:48.830Z,55.67
2018-03-22T20:56:16.404Z,62.30
2018-03-22T20:58:44.548Z,55.23
2018-03-22T21:01:13.486Z,61.97
2018-03-22T21:03:42.327Z,65.00
2018-03-22T21:06:13.034Z,64.53
2018-03-22T21:08:42.815Z,67.00
2018-03-22T21:11:11.049Z,64.07
2018-03-22T21:13:38.571Z,65.23
2018-03-22T21:16:06.827Z,65.70
2018-03-22T21:18:34.381Z,63.40
2018-03-22T21:21:02.693Z,59.00
2018-03-22T21:23:32.209Z,57.60
2018-03-22T21:25:59.780Z,66.77
2018-03-22T21:28:27.280Z,77.57
2018-03-22T21:30:55.868Z,64.43
2018-03-22T21:33:25.413Z,63.83
2018-03-22T21:35:55.047Z,59.40
2018-03-22T21:38:22.894Z,65.60
2018-03-22T21:40:50.719Z,65.63
2018-03-22T21:43:21.156Z,66.13
2018-03-22T21:45:49.437Z,64.63
2018-03-22T21:48:17.146Z,68.20
2018-03-22T21:50:50.415Z,65.37
2018-03-22T21:53:17.978Z,64.17
2018-03-22T21:55:47.365Z,64.03
2018-03-22T21:58:14.867Z,69.20
2018-03-22T22:00:43.442Z,71.60
2018-03-22T22:03:10.919Z,57.47
2018-03-22T22:05:40.850Z,67.13
2018-03-22T22:08:09.718Z,70.80
2018-03-22T22:10:37.911Z,63.03
2018-03-22T22:13:06.574Z,60.07
2018-03-22T22:15:34.056Z,55.30
2018-03-22T22:18:02.335Z,62.97
2018-03-22T22:20:30.589Z,63.73
2018-03-22T22:22:58.107Z,59.30
2018-03-22T22:25:25.588Z,65.27
2018-03-22T22:27:54.599Z,62.20
2018-03-22T22:30:22.083Z,61.93
2018-03-22T22:32:50.327Z,60.37
2018-03-22T22:35:17.838Z,59.50
2018-03-22T22:37:45.343Z,61.10
2018-03-22T22:40:12.957Z,61.07
2018-03-22T22:42:40.461Z,58.90
2018-03-22T22:45:07.972Z,58.23
2018-03-22T22:47:35.494Z,62.57
2018-03-22T22:50:03.019Z,56.73
2018-03-22T22:52:30.481Z,62.47
2018-03-22T22:54:57.969Z,61.47
2018-03-22T22:57:26.201Z,62.93
2018-03-22T22:59:53.734Z,58.30
2018-03-22T23:02:21.216Z,63.80
2018-03-22T23:04:48.668Z,73.97
2018-03-22T23:07:16.134Z,62.93
2018-03-22T23:09:43.605Z,65.93
2018-03-22T23:12:11.077Z,61.57
2018-03-22T23:14:38.545Z,57.93
2018-03-22T23:17:06.782Z,58.57
2018-03-22T23:19:34.238Z,61.67
2018-03-22T23:22:02.488Z,63.53
2018-03-22T23:24:29.974Z,60.33
2018-03-22T23:26:57.419Z,59.87
2018-03-22T23:29:24.881Z,62.23
2018-03-22T23:31:52.366Z,57.97
2018-03-22T23:34:19.921Z,61.77
2018-03-22T23:36:47.369Z,56.50
2018-03-22T23:39:14.845Z,57.57
2018-03-22T23:41:43.070Z,62.03
2018-03-22T23:44:10.521Z,63.63
2018-03-22T23:46:38.008Z,60.57
2018-03-22T23:49:05.499Z,63.70
2018-03-22T23:51:33.728Z,63.23
2018-03-22T23:54:01.190Z,63.70
2018-03-22T23:56:28.732Z,60.87
2018-03-22T23:58:56.901Z,65.73
